Time;durP1;ratioP1;P1;durP2;ratioP2;P2;SDS_P1;SDS_P2;PMS_P1;PMS_P2;Temp;Humidity;BMP_temperature;BMP_pressure;BME280_temperature;BME280_humidity;BME280_pressure;Samples;Min_cycle;Max_cycle;Signal;HPM_P1;HPM_P2
2023/01/16 02:08:38;;;;;;;58.00;21.20;;;;;;;0.70;93.59;98630.63;104171;1308;545373;-74
2023/01/16 02:11:32;;;;;;;63.00;21.10;;;;;;;0.64;93.40;98628.36;106527;1289;24241;-74
2023/01/16 02:14:04;;;;;;;58.80;21.40;;;;;;;0.54;93.27;98628.28;109570;1289;22230;-76
2023/01/16 02:19:19;;;;;;;50.70;19.70;;;;;;;0.44;93.82;98624.80;109451;1288;23335;-77
2023/01/16 02:22:34;;;;;;;60.90;20.80;;;;;;;0.41;94.62;98617.62;109167;1286;570718;-75
2023/01/16 02:25:44;;;;;;;64.10;21.40;;;;;;;0.39;94.04;98608.06;109700;1280;22214;-77
2023/01/16 02:28:30;;;;;;;45.30;19.20;;;;;;;0.36;94.61;98599.68;109704;1286;22229;-74
2023/01/16 02:31:18;;;;;;;45.80;19.10;;;;;;;0.32;94.36;98592.83;110417;1270;22212;-75
2023/01/16 02:34:19;;;;;;;43.60;17.00;;;;;;;0.30;93.18;98589.40;110438;1275;22331;-77
2023/01/16 02:37:18;;;;;;;46.10;18.10;;;;;;;0.27;92.55;98589.21;110406;1275;22375;-75
2023/01/16 02:40:11;;;;;;;51.40;18.70;;;;;;;0.28;93.51;98597.40;110446;1275;22210;-75
2023/01/16 02:42:43;;;;;;;46.50;17.90;;;;;;;0.29;94.11;98592.80;110326;1267;22318;-75
2023/01/16 02:45:21;;;;;;;51.60;18.80;;;;;;;0.29;94.63;98582.23;110290;1273;22272;-75
2023/01/16 02:48:08;;;;;;;54.50;20.80;;;;;;;0.32;94.28;98579.02;110419;1275;22397;-75
2023/01/16 02:50:55;;;;;;;44.20;17.50;;;;;;;0.30;93.38;98575.77;110293;1276;23021;-77
2023/01/16 02:53:35;;;;;;;32.70;13.30;;;;;;;0.28;93.45;98574.55;110273;1275;22212;-75
2023/01/16 02:56:12;;;;;;;40.70;16.20;;;;;;;0.26;93.97;98567.55;110194;1275;22161;-75
2023/01/16 02:58:46;;;;;;;43.80;15.90;;;;;;;0.27;94.03;98559.38;110291;1275;22177;-76
2023/01/16 03:01:17;;;;;;;49.10;16.40;;;;;;;0.27;93.75;98560.06;110425;1275;22227;-75
2023/01/16 03:03:54;;;;;;;41.80;16.40;;;;;;;0.30;94.23;98553.60;110289;1275;22370;-75
2023/01/16 03:06:27;;;;;;;41.70;16.70;;;;;;;0.35;93.45;98546.31;110436;1275;22278;-75
2023/01/16 03:09:23;;;;;;;57.00;18.70;;;;;;;0.39;94.29;98538.67;110439;1275;23348;-75
2023/01/16 03:12:04;;;;;;;42.30;15.80;;;;;;;0.47;94.41;98538.89;109739;1275;22551;-75
2023/01/16 03:14:51;;;;;;;45.40;17.20;;;;;;;0.53;94.27;98533.47;107430;1273;22724;-74
2023/01/16 03:17:41;;;;;;;48.10;18.10;;;;;;;0.59;94.15;98536.23;107309;1275;22684;-75
2023/01/16 03:20:37;;;;;;;46.40;18.00;;;;;;;0.62;93.65;98533.36;107338;1276;22736;-75
2023/01/16 03:23:13;;;;;;;50.80;18.00;;;;;;;0.60;93.70;98525.31;107390;1270;22677;-76
2023/01/16 03:26:01;;;;;;;56.60;20.70;;;;;;;0.63;94.01;98523.13;107369;1276;22550;-75
2023/01/16 03:28:46;;;;;;;47.70;19.40;;;;;;;0.66;93.90;98530.65;107706;1276;22894;-78
2023/01/16 03:31:25;;;;;;;49.20;20.50;;;;;;;0.69;93.56;98528.10;107527;1276;25463;-74
2023/01/16 03:34:03;;;;;;;54.50;22.70;;;;;;;0.70;93.67;98518.55;107741;1276;22536;-75
2023/01/16 03:36:48;;;;;;;43.90;22.40;;;;;;;0.76;93.85;98514.66;107621;1269;22534;-79
2023/01/16 03:39:23;;;;;;;44.50;20.60;;;;;;;0.80;93.77;98512.98;107590;1272;22720;-76
2023/01/16 03:41:54;;;;;;;37.80;17.90;;;;;;;0.83;93.80;98511.63;108632;1275;27320;-77
2023/01/16 03:44:29;;;;;;;42.70;17.60;;;;;;;0.83;93.15;98512.48;110406;1275;22242;-75
2023/01/16 03:47:02;;;;;;;41.30;15.10;;;;;;;0.76;92.24;98511.25;110318;1276;22271;-75
2023/01/16 03:49:54;;;;;;;39.80;16.60;;;;;;;0.70;92.90;98502.88;110436;1276;22289;-78
2023/01/16 03:52:28;;;;;;;31.80;15.00;;;;;;;0.72;93.25;98494.52;110459;1276;23134;-75
2023/01/16 03:55:07;;;;;;;;;;;;;;;0.70;93.21;98491.95;110466;1276;22510;-75
2023/01/16 03:57:44;;;;;;;31.30;14.30;;;;;;;0.71;93.56;98492.64;110333;1270;22384;-77
2023/01/16 04:00:13;;;;;;;39.00;14.10;;;;;;;0.71;93.35;98495.02;110460;1276;22948;-76
2023/01/16 04:02:51;;;;;;;36.40;15.80;;;;;;;0.72;93.34;98497.08;110424;1269;22358;-75
2023/01/16 04:05:26;;;;;;;40.50;15.20;;;;;;;0.73;93.31;98494.17;110212;1272;22218;-76
2023/01/16 04:08:03;;;;;;;40.70;17.10;;;;;;;0.72;93.32;98485.66;110422;1270;22393;-75
2023/01/16 04:10:35;;;;;;;37.40;15.30;;;;;;;0.72;93.35;98483.79;110473;1276;22168;-75
2023/01/16 04:13:09;;;;;;;38.60;16.00;;;;;;;0.73;93.44;98482.58;110175;1276;23352;-75
2023/01/16 04:15:42;;;;;;;37.50;14.10;;;;;;;0.73;93.34;98481.55;110423;1276;22254;-76
2023/01/16 04:18:11;;;;;;;35.00;13.70;;;;;;;0.73;93.33;98481.39;110458;1276;22282;-76
2023/01/16 04:20:43;;;;;;;34.20;14.30;;;;;;;0.71;93.02;98484.29;110372;1276;22345;-75
2023/01/16 04:23:13;;;;;;;29.60;13.30;;;;;;;0.69;92.75;98485.63;110544;1272;23051;-77
2023/01/16 04:25:42;;;;;;;38.20;13.70;;;;;;;0.64;92.45;98483.05;110343;1276;22152;-76
2023/01/16 04:28:11;;;;;;;30.90;13.50;;;;;;;0.60;92.79;98477.91;109797;1276;23894;-75
2023/01/16 04:30:39;;;;;;;29.60;12.90;;;;;;;0.59;93.05;98476.36;107338;1254;22593;-75
2023/01/16 04:33:08;;;;;;;29.80;11.80;;;;;;;0.57;92.45;98473.13;107436;1275;22841;-74
2023/01/16 04:35:36;;;;;;;32.60;14.10;;;;;;;0.56;92.92;98471.25;107908;1276;22663;-75
2023/01/16 04:38:04;;;;;;;37.30;13.60;;;;;;;0.57;92.83;98466.30;107374;1276;22536;-75
2023/01/16 04:40:32;;;;;;;38.40;14.60;;;;;;;0.58;92.17;98463.92;107388;1276;24212;-76
2023/01/16 04:43:00;;;;;;;28.90;12.80;;;;;;;0.57;92.60;98461.35;107393;1276;24231;-74
2023/01/16 04:45:28;;;;;;;32.40;13.60;;;;;;;0.61;92.82;98458.65;107394;1276;24212;-76
2023/01/16 04:47:57;;;;;;;39.00;14.90;;;;;;;0.64;92.95;98452.86;107428;1276;22621;-76
2023/01/16 04:50:25;;;;;;;37.00;14.40;;;;;;;0.69;93.10;98451.52;107478;1276;22583;-75
2023/01/16 04:52:53;;;;;;;38.70;14.30;;;;;;;0.74;93.27;98452.39;107461;1269;24434;-75
2023/01/16 04:55:21;;;;;;;34.30;14.50;;;;;;;0.80;93.21;98457.72;107504;1275;24431;-75
2023/01/16 04:57:49;;;;;;;45.80;16.70;;;;;;;0.83;92.71;98454.31;107466;1275;24272;-75
2023/01/16 05:00:18;;;;;;;37.50;14.60;;;;;;;0.81;92.73;98451.39;107443;1276;22650;-76
2023/01/16 05:02:46;;;;;;;37.70;15.60;;;;;;;0.84;93.06;98444.75;107488;1275;22522;-75
2023/01/16 05:05:14;;;;;;;35.40;14.70;;;;;;;0.87;93.00;98437.94;107412;1254;25507;-75
2023/01/16 05:07:42;;;;;;;39.90;15.40;;;;;;;0.89;92.99;98430.27;107426;1276;22664;-75
2023/01/16 05:10:10;;;;;;;32.80;13.60;;;;;;;0.90;92.94;98424.13;107366;1276;25347;-75
2023/01/16 05:12:39;;;;;;;38.10;13.20;;;;;;;0.93;93.05;98425.84;107241;1263;22550;-74
2023/01/16 05:15:10;;;;;;;39.30;14.00;;;;;;;0.92;92.74;98429.59;107377;1276;22525;-75
2023/01/16 05:17:38;;;;;;;32.10;14.50;;;;;;;0.90;92.79;98432.66;107187;1276;22588;-74
2023/01/16 05:20:07;;;;;;;32.90;14.40;;;;;;;0.88;92.76;98428.73;107295;1269;23712;-74
2023/01/16 05:22:35;;;;;;;29.70;14.20;;;;;;;0.85;92.34;98429.58;107212;1276;22548;-76
2023/01/16 05:25:04;;;;;;;37.30;14.60;;;;;;;0.77;92.77;98425.11;107311;1268;22653;-75
2023/01/16 05:27:32;;;;;;;34.60;14.50;;;;;;;0.75;93.25;98422.38;107102;1276;22589;-75
2023/01/16 05:30:00;;;;;;;37.80;15.60;;;;;;;0.72;92.90;98424.59;107284;1270;22939;-75
2023/01/16 05:32:28;;;;;;;38.70;15.20;;;;;;;0.69;92.28;98427.30;107296;1276;24587;-75
2023/01/16 05:35:00;;;;;;;40.70;15.20;;;;;;;0.65;92.75;98420.46;107340;1270;22506;-74
2023/01/16 05:37:28;;;;;;;35.20;14.30;;;;;;;0.66;93.32;98415.52;107292;1276;22961;-75
2023/01/16 05:39:57;;;;;;;36.50;15.60;;;;;;;0.66;93.03;98410.23;107265;1276;22585;-75
2023/01/16 05:42:25;;;;;;;45.10;16.10;;;;;;;0.66;92.57;98406.31;107458;1272;22542;-74
2023/01/16 05:44:53;;;;;;;37.00;14.40;;;;;;;0.64;92.76;98409.71;107410;1276;24060;-75
2023/01/16 05:47:21;;;;;;;35.90;13.70;;;;;;;0.64;92.97;98410.05;107451;1266;22676;-75
2023/01/16 05:49:50;;;;;;;35.80;13.30;;;;;;;0.63;92.63;98405.11;107530;1275;22947;-75
2023/01/16 05:52:18;;;;;;;27.50;12.90;;;;;;;0.63;92.85;98400.84;107457;1276;25220;-74
2023/01/16 05:54:46;;;;;;;32.20;14.70;;;;;;;0.64;93.00;98402.73;107228;1272;22645;-75
2023/01/16 05:57:14;;;;;;;41.70;13.70;;;;;;;0.66;93.11;98393.20;107585;1269;22605;-75
2023/01/16 05:59:45;;;;;;;36.50;13.80;;;;;;;0.69;92.90;98388.76;107630;1276;22519;-75
2023/01/16 06:02:13;;;;;;;35.80;16.30;;;;;;;0.74;93.01;98389.63;107747;1276;27716;-75
2023/01/16 06:04:42;;;;;;;38.40;15.00;;;;;;;0.81;93.68;98386.73;107512;1270;22558;-76
2023/01/16 06:07:10;;;;;;;31.10;14.10;;;;;;;0.88;93.92;98386.94;107651;1275;27115;-75
2023/01/16 06:09:39;;;;;;;37.60;15.20;;;;;;;0.93;93.69;98390.01;107683;1276;23837;-76
2023/01/16 06:12:07;;;;;;;40.80;15.90;;;;;;;0.98;93.65;98389.00;107555;1276;22470;-75
2023/01/16 06:14:36;;;;;;;44.40;17.90;;;;;;;0.99;93.37;98389.35;107456;1264;24090;-76
2023/01/16 06:17:04;;;;;;;53.50;19.80;;;;;;;1.00;93.42;98387.82;107433;1276;22766;-75
2023/01/16 06:19:32;;;;;;;39.10;17.60;;;;;;;1.01;93.33;98393.80;107489;1276;22520;-75
2023/01/16 06:22:00;;;;;;;38.50;15.90;;;;;;;0.99;93.34;98396.84;107307;1276;24250;-75
2023/01/16 06:24:28;;;;;;;36.40;16.30;;;;;;;0.97;93.54;98394.96;107427;1270;22604;-75
2023/01/16 06:26:56;;;;;;;40.20;15.90;;;;;;;0.99;93.61;98387.13;107579;1267;22627;-76
2023/01/16 06:29:25;;;;;;;36.40;15.60;;;;;;;1.01;93.23;98385.08;107408;1276;23341;-76
2023/01/16 06:31:53;;;;;;;41.30;17.50;;;;;;;0.97;93.37;98393.42;107453;1275;23889;-76
2023/01/16 06:34:21;;;;;;;42.90;15.30;;;;;;;0.97;93.60;98400.77;107522;1275;22645;-76
2023/01/16 06:36:50;;;;;;;48.50;18.90;;;;;;;0.98;93.58;98398.21;107543;1276;22656;-76
2023/01/16 06:39:18;;;;;;;48.40;20.20;;;;;;;0.99;93.25;98391.73;107527;1275;24258;-76
2023/01/16 06:41:46;;;;;;;43.20;18.10;;;;;;;1.01;93.57;98396.36;107428;1271;22527;-75
2023/01/16 06:44:14;;;;;;;52.80;18.60;;;;;;;1.02;93.57;98394.65;107442;1270;25406;-75
2023/01/16 06:46:42;;;;;;;50.50;20.60;;;;;;;1.03;93.36;98388.49;107510;1275;22520;-75
2023/01/16 06:49:11;;;;;;;48.60;20.90;;;;;;;1.02;93.11;98391.58;107474;1275;25497;-77
2023/01/16 06:51:41;;;;;;;63.00;23.00;;;;;;;0.97;92.75;98391.56;107527;1268;22560;-76
2023/01/16 06:54:10;;;;;;;58.70;22.30;;;;;;;0.90;92.31;98390.69;107444;1271;22795;-78
2023/01/16 06:56:38;;;;;;;52.20;21.30;;;;;;;0.81;92.87;98389.98;107566;1276;26578;-76
2023/01/16 06:59:06;;;;;;;49.50;18.90;;;;;;;0.77;92.35;98381.10;107563;1275;22635;-77
2023/01/16 07:01:37;;;;;;;40.90;16.50;;;;;;;0.74;92.54;98373.92;107537;1276;22672;-76
2023/01/16 07:04:06;;;;;;;42.30;16.30;;;;;;;0.68;92.60;98376.64;107601;1275;22567;-78
2023/01/16 07:06:35;;;;;;;44.80;15.30;;;;;;;0.64;93.50;98372.86;107600;1270;22559;-76
2023/01/16 07:09:03;;;;;;;37.40;16.00;;;;;;;0.65;92.91;98375.77;107582;1275;22525;-76
2023/01/16 07:11:31;;;;;;;37.90;15.80;;;;;;;0.64;93.08;98368.10;107662;1272;22675;-75
2023/01/16 07:22:38;;;;;;;37.00;15.50;;;;;;;0.77;93.66;98362.00;107474;1275;24390;-75
2023/01/16 07:25:20;;;;;;;46.00;17.90;;;;;;;0.79;94.06;98361.48;107330;1270;22804;-75
2023/01/16 07:27:50;;;;;;;42.50;17.80;;;;;;;0.85;93.95;98360.98;107383;1271;22566;-76
2023/01/16 07:30:20;;;;;;;45.70;18.10;;;;;;;0.87;93.89;98354.34;107388;1269;23345;-75
2023/01/16 07:32:49;;;;;;;54.10;20.40;;;;;;;0.90;93.99;98357.24;107560;1269;24424;-76
2023/01/16 07:35:17;;;;;;;56.40;20.50;;;;;;;0.92;93.99;98352.81;107549;1275;22634;-76
2023/01/16 07:37:47;;;;;;;54.00;21.30;;;;;;;0.93;94.07;98348.89;107337;1276;25304;-75
2023/01/16 07:40:15;;;;;;;53.90;22.20;;;;;;;0.94;93.84;98353.16;107484;1274;23277;-75
2023/01/16 07:42:43;;;;;;;46.00;19.30;;;;;;;0.92;93.76;98356.23;107585;1264;22475;-76
2023/01/16 07:45:12;;;;;;;50.50;20.60;;;;;;;0.92;93.56;98354.35;107497;1276;22655;-76
2023/01/16 07:47:40;;;;;;;55.90;20.90;;;;;;;0.92;93.76;98345.82;107554;1275;23377;-76
2023/01/16 07:50:08;;;;;;;50.50;19.60;;;;;;;0.96;93.35;98349.23;107467;1276;23285;-75
2023/01/16 07:52:37;;;;;;;37.50;17.30;;;;;;;0.95;93.39;98343.27;107568;1276;22523;-77
2023/01/16 07:55:05;;;;;;;43.50;16.60;;;;;;;0.96;93.54;98340.70;107504;1276;22522;-76
2023/01/16 07:57:38;;;;;;;42.60;16.20;;;;;;;0.96;93.38;98336.09;107927;1270;23456;-75
2023/01/16 08:00:12;;;;;;;40.90;16.00;;;;;;;0.96;92.76;98337.11;107782;1275;21806;-76
2023/01/16 08:02:41;;;;;;;46.40;17.70;;;;;;;0.97;92.91;98340.02;107604;1269;22562;-82
2023/01/16 08:05:10;;;;;;;51.80;19.30;;;;;;;1.04;93.67;98323.99;107784;1275;22692;-76
2023/01/16 08:07:38;;;;;;;49.20;18.90;;;;;;;1.14;93.56;98321.27;107491;1275;22657;-76
2023/01/16 08:10:07;;;;;;;46.50;17.60;;;;;;;1.22;93.43;98325.71;107415;1275;22750;-76
2023/01/16 08:12:38;;;;;;;44.30;17.20;;;;;;;1.29;93.68;98330.48;107601;1269;22690;-75
2023/01/16 08:15:07;;;;;;;44.90;17.40;;;;;;;1.40;93.76;98333.04;110464;1275;22206;-75
2023/01/16 08:17:39;;;;;;;49.80;17.30;;;;;;;1.46;93.42;98328.95;110350;1275;22333;-76
2023/01/16 08:20:08;;;;;;;41.00;17.00;;;;;;;1.52;93.42;98325.52;110291;1271;23189;-76
2023/01/16 08:22:49;;;;;;;43.40;18.10;;;;;;;1.56;93.56;98320.05;110457;1272;22968;-76
2023/01/16 08:25:21;;;;;;;49.40;19.90;;;;;;;1.65;93.32;98321.57;110255;1275;22298;-76
2023/01/16 08:27:49;;;;;;;44.00;17.90;;;;;;;1.68;93.36;98329.42;110263;1270;22199;-76
2023/01/16 08:30:17;;;;;;;48.90;20.00;;;;;;;1.71;93.22;98333.67;110486;1267;23048;-77
2023/01/16 08:32:47;;;;;;;49.10;19.10;;;;;;;1.78;93.17;98328.20;108638;1275;25198;-76
2023/01/16 08:35:15;;;;;;;44.20;20.80;;;;;;;1.81;92.85;98326.14;107634;1275;22562;-77
2023/01/16 08:37:49;;;;;;;48.80;20.20;;;;;;;1.87;93.09;98325.30;107577;1272;22532;-75
2023/01/16 08:40:18;;;;;;;58.00;21.20;;;;;;;1.97;93.13;98321.49;107500;1275;23370;-75
2023/01/16 08:51:25;;;;;;;48.60;19.40;;;;;;;2.06;92.23;98294.97;109644;1275;25227;-76
2023/01/16 08:53:55;;;;;;;49.70;21.50;;;;;;;2.08;92.03;98297.18;110372;1275;22177;-76
2023/01/16 08:56:24;;;;;;;45.90;21.10;;;;;;;2.09;92.12;98302.81;110451;1275;22180;-76
2023/01/16 08:58:52;;;;;;;46.90;20.40;;;;;;;2.11;92.53;98303.31;110289;1275;23002;-76
2023/01/16 09:01:20;;;;;;;47.60;20.10;;;;;;;2.18;92.47;98304.15;110300;1275;22197;-76
2023/01/16 09:03:53;;;;;;;63.40;23.90;;;;;;;2.21;92.13;98308.23;109182;1269;25288;-77
2023/01/16 09:06:22;;;;;;;102.90;32.30;;;;;;;2.23;91.93;98305.84;108133;1273;22526;-77
2023/01/16 09:08:50;;;;;;;42.40;18.30;;;;;;;2.25;91.75;98297.80;108068;1275;22517;-78
2023/01/16 09:14:05;;;;;;;42.00;18.80;;;;;;;2.29;91.52;98303.59;107724;1270;22631;-76
2023/01/16 09:16:51;;;;;;;37.60;16.60;;;;;;;2.33;91.39;98302.38;107477;1275;22930;-76
2023/01/16 09:19:19;;;;;;;44.80;17.40;;;;;;;2.36;91.55;98287.14;107486;1275;25521;-78
2023/01/16 09:21:48;;;;;;;51.60;17.90;;;;;;;2.41;91.57;98281.48;107495;1275;25284;-76
2023/01/16 09:24:16;;;;;;;40.00;17.70;;;;;;;2.50;91.46;98273.73;107661;1275;23384;-75
2023/01/16 09:26:44;;;;;;;40.90;17.10;;;;;;;2.54;90.92;98273.53;107827;1275;24206;-76
2023/01/16 09:29:12;;;;;;;39.70;16.70;;;;;;;2.60;91.07;98269.22;108414;1275;22472;-76
2023/01/16 09:31:41;;;;;;;34.10;14.90;;;;;;;2.61;90.44;98276.39;108332;1275;23842;-76
2023/01/16 09:34:09;;;;;;;42.90;17.00;;;;;;;2.64;90.49;98279.11;108336;1275;22585;-76
2023/01/16 09:36:37;;;;;;;40.50;16.80;;;;;;;2.73;91.22;98279.91;108425;1270;25239;-77
2023/01/16 09:39:05;;;;;;;46.60;18.70;;;;;;;2.77;91.10;98264.81;108193;1275;25515;-75
2023/01/16 09:44:32;;;;;;;60.90;22.70;;;;;;;3.01;91.30;98248.73;107474;1267;22628;-76
2023/01/16 09:47:02;;;;;;;60.40;23.50;;;;;;;3.05;91.05;98238.94;107394;1275;24995;-77
2023/01/16 09:49:41;;;;;;;52.00;23.00;;;;;;;3.11;90.81;98238.55;107559;1275;22557;-76
2023/01/16 10:00:52;;;;;;;51.20;21.50;;;;;;;3.23;89.78;98234.66;107519;1275;22516;-76
2023/01/16 10:03:23;;;;;;;58.80;23.00;;;;;;;3.22;89.86;98231.58;107551;1275;22565;-76
2023/01/16 10:06:20;;;;;;;56.60;21.40;;;;;;;3.26;90.28;98230.87;107683;1275;25275;-76
2023/01/16 10:09:23;;;;;;;57.40;24.90;;;;;;;3.32;90.34;98226.19;107311;1275;22520;-77
2023/01/16 10:12:04;;;;;;;58.60;25.10;;;;;;;3.39;90.48;98223.36;107300;1275;25693;-77
2023/01/16 10:14:41;;;;;;;68.30;25.60;;;;;;;3.45;90.15;98215.60;107412;1275;22641;-76
2023/01/16 10:17:11;;;;;;;56.40;25.40;;;;;;;3.47;90.03;98203.60;107461;1275;23445;-75
2023/01/16 10:20:01;;;;;;;50.20;23.50;;;;;;;3.48;89.83;98198.95;107465;1275;25363;-75
2023/01/16 10:22:50;;;;;;;51.00;22.60;;;;;;;3.51;89.76;98201.50;107476;1275;25319;-76
2023/01/16 10:25:29;;;;;;;49.80;22.10;;;;;;;3.54;89.79;98198.20;107451;1275;25226;-76
2023/01/16 10:28:32;;;;;;;46.00;20.20;;;;;;;3.55;89.20;98196.98;107564;1266;25297;-76
2023/01/16 10:31:18;;;;;;;56.40;23.30;;;;;;;3.48;89.52;98189.70;107535;1275;23929;-76
2023/01/16 10:33:56;;;;;;;47.10;20.50;;;;;;;3.52;89.61;98184.34;107622;1275;24205;-76
2023/01/16 10:36:31;;;;;;;41.60;19.70;;;;;;;3.59;89.84;98193.00;107562;1267;24280;-76
2023/01/16 10:39:01;;;;;;;50.70;19.60;;;;;;;3.66;89.87;98184.70;110442;1275;22207;-76
2023/01/16 10:50:18;;;;;;;46.60;18.60;;;;;;;3.89;89.75;98130.94;110439;1275;22211;-76
2023/01/16 10:53:10;;;;;;;42.50;19.10;;;;;;;3.91;89.60;98128.67;107690;1267;22583;-76
2023/01/16 10:55:45;;;;;;;42.40;16.60;;;;;;;3.95;89.62;98121.09;107416;1275;25297;-76
2023/01/16 10:58:26;;;;;;;41.90;18.50;;;;;;;3.93;89.16;98111.67;107589;1266;22549;-76
2023/01/16 11:01:09;;;;;;;50.00;22.80;;;;;;;3.94;88.99;98110.97;107568;1275;22618;-75
2023/01/16 11:03:49;;;;;;;48.20;19.90;;;;;;;3.99;89.09;98106.61;107486;1269;22636;-75
2023/01/16 11:06:30;;;;;;;45.10;20.80;;;;;;;4.05;88.97;98116.12;107619;1267;22516;-76
2023/01/16 11:09:04;;;;;;;43.10;19.60;;;;;;;4.08;88.55;98120.70;110363;1275;22913;-78
2023/01/16 11:20:31;;;;;;;49.20;20.20;;;;;;;4.09;87.61;98094.80;110466;1275;22272;-76
2023/01/16 11:23:17;;;;;;;45.50;20.20;;;;;;;4.12;87.60;98079.67;110277;1275;22195;-79
2023/01/16 11:25:47;;;;;;;45.30;17.70;;;;;;;4.16;87.60;98070.17;109938;1264;22648;-76
2023/01/16 11:28:35;;;;;;;42.10;18.20;;;;;;;4.11;87.15;98065.97;110471;1266;22392;-77
2023/01/16 11:31:18;;;;;;;42.80;19.00;;;;;;;4.13;87.64;98062.86;110473;1275;22420;-76
2023/01/16 11:34:00;;;;;;;38.10;18.10;;;;;;;4.07;87.22;98059.52;110445;1275;22395;-76
2023/01/16 11:36:33;;;;;;;43.80;17.90;;;;;;;4.05;87.41;98052.86;110479;1275;22290;-76
2023/01/16 11:39:06;;;;;;;40.80;18.10;;;;;;;3.97;87.37;98047.50;110455;1275;22979;-75
2023/01/16 11:41:37;;;;;;;40.80;17.30;;;;;;;3.90;87.41;98038.52;110453;1269;23304;-76
2023/01/16 11:47:16;;;;;;;44.90;19.20;;;;;;;3.83;87.54;98031.42;110439;1275;22239;-75
2023/01/16 11:49:47;;;;;;;55.60;22.80;;;;;;;3.83;87.73;98014.45;110478;1275;22310;-76
2023/01/16 11:52:29;;;;;;;58.00;26.50;;;;;;;3.85;87.84;98008.27;110497;1275;22217;-76
2023/01/16 11:55:00;;;;;;;50.30;23.70;;;;;;;3.84;87.70;97999.36;110414;1275;22313;-77
2023/01/16 11:57:53;;;;;;;61.10;26.50;;;;;;;3.82;87.74;97998.55;110362;1273;22153;-76
2023/01/16 12:00:39;;;;;;;58.30;25.20;;;;;;;3.81;87.61;97992.89;110468;1275;22347;-75
2023/01/16 12:04:04;;;;;;;58.10;22.70;;;;;;;3.78;87.56;97989.84;110477;1275;22671;-77
2023/01/16 12:06:47;;;;;;;61.20;22.40;;;;;;;3.74;87.41;97987.86;109900;1281;22550;-76
2023/01/16 12:09:25;;;;;;;51.00;21.30;;;;;;;3.74;87.68;97986.98;110422;1275;22974;-75
2023/01/16 12:15:04;;;;;;;47.70;18.50;;;;;;;3.75;88.23;97977.04;107566;1275;22516;-76
2023/01/16 12:17:54;;;;;;;49.10;18.50;;;;;;;3.76;88.05;97971.36;110451;1275;22425;-76
2023/01/16 12:20:40;;;;;;;54.30;21.50;;;;;;;3.79;87.82;97964.63;110452;1275;23164;-75
2023/01/16 12:23:08;;;;;;;48.70;18.00;;;;;;;3.85;88.43;97955.45;110506;1275;22379;-77
2023/01/16 12:26:02;;;;;;;47.10;19.30;;;;;;;3.86;88.21;97945.16;110424;1275;22229;-76
2023/01/16 12:28:47;;;;;;;38.70;17.50;;;;;;;3.92;88.27;97942.48;110468;1271;22222;-77
2023/01/16 12:31:36;;;;;;;39.10;18.10;;;;;;;3.93;88.31;97941.77;110400;1275;22971;-76
2023/01/16 12:34:25;;;;;;;45.90;19.50;;;;;;;3.88;87.45;97954.38;110509;1275;22299;-76
2023/01/16 12:37:29;;;;;;;41.60;18.50;;;;;;;3.88;87.15;97952.67;110500;1275;22222;-76
2023/01/16 12:40:22;;;;;;;40.70;18.50;;;;;;;3.86;86.95;97943.63;110395;1275;22290;-76
2023/01/16 12:43:18;;;;;;;33.90;16.20;;;;;;;3.84;86.98;97936.27;110460;1263;22190;-76
2023/01/16 12:45:52;;;;;;;46.80;18.40;;;;;;;3.83;87.15;97932.69;110467;1266;22319;-76
2023/01/16 12:48:21;;;;;;;38.80;16.90;;;;;;;3.82;87.18;97927.91;110488;1275;22373;-76
2023/01/16 12:51:03;;;;;;;39.00;15.90;;;;;;;3.84;86.19;97916.23;110463;1267;22324;-76
2023/01/16 12:53:43;;;;;;;39.20;16.50;;;;;;;3.85;85.92;97909.52;110438;1274;22230;-77
2023/01/16 12:56:33;;;;;;;39.40;16.30;;;;;;;3.84;85.99;97896.67;109765;1272;22526;-80
2023/01/16 12:59:18;;;;;;;46.40;17.20;;;;;;;3.83;85.77;97888.30;108231;1275;22526;-79
2023/01/16 13:01:49;;;;;;;40.10;16.40;;;;;;;3.76;85.71;97893.92;108294;1275;22545;-78
2023/01/16 13:04:38;;;;;;;37.00;16.30;;;;;;;3.73;85.73;97891.19;110526;1275;22222;-77
2023/01/16 13:07:12;;;;;;;33.70;15.50;;;;;;;3.72;85.64;97878.36;110300;1275;22898;-76
2023/01/16 13:15:38;;;;;;;35.50;12.00;;;;;;;3.65;85.72;97852.97;107494;1266;22577;-76
2023/01/16 13:18:25;;;;;;;36.10;13.20;;;;;;;3.61;85.69;97853.71;107413;1275;22632;-76
2023/01/16 13:21:01;;;;;;;28.90;12.30;;;;;;;3.65;85.84;97851.26;107484;1275;24387;-76
2023/01/16 13:23:47;;;;;;;39.00;14.50;;;;;;;3.66;85.77;97851.58;107429;1269;24152;-78
2023/01/16 13:26:17;;;;;;;48.90;17.00;;;;;;;3.71;86.62;97850.45;107424;1276;24008;-76
2023/01/16 13:28:58;;;;;;;52.10;20.10;;;;;;;3.72;87.13;97844.62;107347;1275;22468;-77
2023/01/16 13:32:00;;;;;;;48.60;21.10;;;;;;;3.72;87.54;97836.04;107442;1272;22546;-76
2023/01/16 13:34:58;;;;;;;40.00;19.00;;;;;;;3.69;87.92;97827.71;107382;1275;23831;-75
2023/01/16 13:37:52;;;;;;;40.50;19.20;;;;;;;3.67;87.76;97831.17;107377;1276;22531;-79
2023/01/16 13:40:47;;;;;;;40.40;18.60;;;;;;;3.64;87.40;97832.08;107407;1275;22598;-75
2023/01/16 13:46:19;;;;;;;40.70;17.10;;;;;;;3.59;86.54;97821.36;107447;1275;24232;-75
2023/01/16 13:49:00;;;;;;;37.30;17.70;;;;;;;3.54;86.44;97811.52;107547;1275;23758;-75
2023/01/16 13:51:28;;;;;;;40.60;16.40;;;;;;;3.52;86.33;97808.64;107596;1276;22524;-75
2023/01/16 13:54:13;;;;;;;44.90;16.40;;;;;;;3.50;85.80;97801.99;107512;1275;22820;-75
2023/01/16 13:56:41;;;;;;;40.20;18.00;;;;;;;3.45;86.08;97796.61;107687;1275;22551;-75
2023/01/16 13:59:41;;;;;;;43.90;20.40;;;;;;;3.42;86.86;97791.86;107552;1276;22667;-76
2023/01/16 14:02:26;;;;;;;44.10;19.80;;;;;;;3.39;86.62;97788.46;107434;1275;22546;-75
2023/01/16 14:05:24;;;;;;;43.60;17.70;;;;;;;3.34;86.87;97784.45;110450;1275;22154;-76
2023/01/16 14:11:14;;;;;;;41.70;15.80;;;;;;;3.31;87.08;97782.80;110459;1275;22151;-76
2023/01/16 14:13:43;;;;;;;;;;;;;;;3.34;87.06;97787.70;110403;1275;22451;-77
2023/01/16 14:16:35;;;;;;;35.90;15.30;;;;;;;3.39;87.32;97780.95;110500;1275;22165;-76
2023/01/16 14:19:15;;;;;;;36.00;15.70;;;;;;;3.43;87.52;97778.47;110424;1275;22954;-77
2023/01/16 14:24:48;;;;;;;45.80;15.40;;;;;;;3.50;87.38;97775.27;110410;1275;22395;-76
2023/01/16 14:27:23;;;;;;;46.70;16.20;;;;;;;3.54;87.70;97768.34;110341;1275;22220;-75
2023/01/16 14:29:56;;;;;;;41.50;16.80;;;;;;;3.58;87.88;97761.94;110465;1275;22225;-75
2023/01/16 14:32:29;;;;;;;43.10;18.30;;;;;;;3.61;88.19;97761.36;110484;1275;22183;-75
2023/01/16 14:35:16;;;;;;;50.40;21.50;;;;;;;3.60;87.85;97758.11;110513;1275;22841;-76
2023/01/16 14:37:58;;;;;;;56.30;22.40;;;;;;;3.61;87.79;97757.09;110453;1275;22260;-77
2023/01/16 14:55:42;;;;;;;63.80;30.40;;;;;;;3.44;86.96;97737.35;107634;1275;22471;-76
2023/01/16 14:58:15;;;;;;;52.20;24.30;;;;;;;3.38;87.18;97736.95;107856;1275;23884;-76
2023/01/16 15:00:44;;;;;;;61.20;26.90;;;;;;;3.34;86.97;97736.85;107640;1275;24263;-76
2023/01/16 15:03:19;;;;;;;60.80;26.10;;;;;;;3.31;87.11;97734.16;110481;1275;22169;-75
2023/01/16 15:05:55;;;;;;;67.50;27.10;;;;;;;3.27;87.41;97735.27;110391;1275;22342;-76
2023/01/16 15:08:27;;;;;;;65.60;29.30;;;;;;;3.24;87.60;97722.64;110178;1275;22227;-76
2023/01/16 15:11:30;;;;;;;60.80;25.80;;;;;;;3.21;87.53;97721.15;110456;1275;22224;-76
2023/01/16 15:22:38;;;;;;;57.30;23.90;;;;;;;3.07;88.15;97726.35;110379;1275;22186;-76
2023/01/16 15:25:32;;;;;;;69.40;28.60;;;;;;;3.07;88.31;97727.39;110464;1275;22248;-76
2023/01/16 15:28:25;;;;;;;60.50;26.10;;;;;;;3.10;88.46;97718.09;110284;1275;22169;-76
2023/01/16 15:31:00;;;;;;;62.70;23.80;;;;;;;3.13;88.91;97703.66;110461;1273;23333;-76
2023/01/16 15:33:45;;;;;;;54.20;21.70;;;;;;;3.14;88.73;97696.96;110437;1275;22484;-76
2023/01/16 15:36:26;;;;;;;41.90;17.40;;;;;;;3.18;88.74;97704.60;110195;1267;22214;-75
2023/01/16 15:39:16;;;;;;;52.70;18.50;;;;;;;3.19;88.84;97704.59;110406;1275;22401;-76
2023/01/16 15:48:00;;;;;;;36.70;16.30;;;;;;;3.32;88.87;97690.80;110426;1275;22207;-77